Terminal Aerodrome Forecast
Issued by NWS Blacksburg, VA

Home | Current Version | Previous Version | Text Only | Print | Product List | Glossary On
Versions: 1 2 3 4 5 6 7 8 9 10 11 12 13 14 15 16 17 18 19 20 21
000
FTUS41 KRNK 291219 AAA
TAFLYH
TAF AMD
KLYH 291219Z 2912/3012 00000KT P6SM OVC003
      TEMPO 2912/2914 3SM BR
     FM291500 VRB03KT P6SM OVC015
     FM291800 22005KT P6SM SCT030
     FM300000 VRB03KT P6SM BKN150
     FM300400 02006KT P6SM OVC005=

USA.gov is the U.S. government's official web portal to all federal, state and local government web resources and services.